createdAt,value
2023-04-14T00:02:00.912Z,8.07
2023-04-14T00:04:27.720Z,7.99
2023-04-14T00:06:56.979Z,8.04
2023-04-14T00:09:23.377Z,8.07
2023-04-14T00:11:50.769Z,8.06
2023-04-14T00:14:17.225Z,7.97
2023-04-14T00:16:43.959Z,7.90
2023-04-14T00:19:11.089Z,7.84
2023-04-14T00:21:37.457Z,7.80
2023-04-14T00:24:03.877Z,7.74
2023-04-14T00:26:32.678Z,7.62
2023-04-14T00:28:59.269Z,7.59
2023-04-14T00:31:25.932Z,7.62
2023-04-14T00:33:52.277Z,7.56
2023-04-14T00:36:18.699Z,7.55
2023-04-14T00:38:45.050Z,7.50
2023-04-14T00:41:11.409Z,7.45
2023-04-14T00:43:37.947Z,7.51
2023-04-14T00:46:04.307Z,7.46
2023-04-14T00:48:30.726Z,7.35
2023-04-14T00:50:57.200Z,7.34
2023-04-14T00:53:23.934Z,7.39
2023-04-14T00:55:50.692Z,7.39
2023-04-14T00:58:17.323Z,7.37
2023-04-14T01:00:43.955Z,7.28
2023-04-14T01:03:10.582Z,7.25
2023-04-14T01:05:37.119Z,7.27
2023-04-14T01:08:04.170Z,7.28
2023-04-14T01:10:38.166Z,7.19
2023-04-14T01:13:07.519Z,7.12
2023-04-14T01:15:57.505Z,7.09
2023-04-14T01:18:33.016Z,7.14
2023-04-14T01:21:05.501Z,7.02
2023-04-14T01:23:35.597Z,6.91
2023-04-14T01:26:15.588Z,6.98
2023-04-14T01:29:11.275Z,6.98
2023-04-14T01:31:44.585Z,6.97
2023-04-14T01:34:15.658Z,7.01
2023-04-14T01:36:46.322Z,6.91
2023-04-14T01:39:18.391Z,7.02
2023-04-14T01:41:50.632Z,7.00
2023-04-14T01:44:19.213Z,6.93
2023-04-14T01:46:48.011Z,6.86
2023-04-14T01:49:15.999Z,6.84
2023-04-14T01:51:43.963Z,6.77
2023-04-14T01:54:13.118Z,6.72
2023-04-14T01:56:40.975Z,6.71
2023-04-14T01:59:10.314Z,6.66
2023-04-14T02:01:39.029Z,6.59
2023-04-14T02:04:06.601Z,6.53
2023-04-14T02:06:34.685Z,6.53
2023-04-14T02:09:03.705Z,6.52
2023-04-14T02:11:31.416Z,6.50
2023-04-14T02:13:58.925Z,6.35
2023-04-14T02:16:25.946Z,6.29
2023-04-14T02:18:52.399Z,6.25
2023-04-14T02:21:24.170Z,6.30
2023-04-14T02:23:50.996Z,6.20
2023-04-14T02:26:23.951Z,6.27
2023-04-14T02:28:58.458Z,6.26
2023-04-14T02:31:30.119Z,6.15
2023-04-14T02:34:00.676Z,6.19
2023-04-14T02:36:34.177Z,6.24
2023-04-14T02:39:04.545Z,6.26
2023-04-14T02:41:32.832Z,6.21
2023-04-14T02:44:23.116Z,6.10
2023-04-14T02:47:07.586Z,5.95
2023-04-14T02:49:42.677Z,5.93
2023-04-14T02:52:15.365Z,5.87
2023-04-14T02:54:43.848Z,5.76
2023-04-14T02:57:11.013Z,5.76
2023-04-14T02:59:39.006Z,5.70
2023-04-14T03:02:06.275Z,5.70
2023-04-14T03:04:34.620Z,5.70
2023-04-14T03:07:02.663Z,5.69
2023-04-14T03:09:30.511Z,5.74
2023-04-14T03:11:58.359Z,5.79
2023-04-14T03:14:25.836Z,5.75
2023-04-14T03:16:54.325Z,5.60
2023-04-14T03:19:23.097Z,5.49
2023-04-14T03:21:55.253Z,5.39
2023-04-14T03:24:30.630Z,5.43
2023-04-14T03:27:07.065Z,5.38
2023-04-14T03:29:39.125Z,5.34
2023-04-14T03:32:07.040Z,5.35
2023-04-14T03:34:35.632Z,5.36
2023-04-14T03:37:04.302Z,5.39
2023-04-14T03:39:34.525Z,5.43
2023-04-14T03:42:02.613Z,5.54
2023-04-14T03:44:35.564Z,5.41
2023-04-14T03:47:04.015Z,5.27
2023-04-14T03:49:33.283Z,5.31
2023-04-14T03:52:05.316Z,5.18
2023-04-14T03:54:33.830Z,5.09
2023-04-14T03:57:04.620Z,5.08
2023-04-14T03:59:32.269Z,5.07
2023-04-14T04:01:59.238Z,5.09
2023-04-14T04:04:26.884Z,5.13
2023-04-14T04:06:53.846Z,5.09
2023-04-14T04:09:24.409Z,5.06
2023-04-14T04:11:52.511Z,5.00
2023-04-14T04:14:21.276Z,4.97
2023-04-14T04:16:50.120Z,4.97
2023-04-14T04:19:20.389Z,4.95
2023-04-14T04:21:49.369Z,5.02
2023-04-14T04:24:17.970Z,5.07
2023-04-14T04:26:44.350Z,5.16
2023-04-14T04:29:11.270Z,5.15
2023-04-14T04:31:39.732Z,4.90
2023-04-14T04:34:08.093Z,4.81
2023-04-14T04:36:36.705Z,4.72
2023-04-14T04:39:03.605Z,4.72
2023-04-14T04:41:30.663Z,4.80
2023-04-14T04:43:57.337Z,4.79
2023-04-14T04:46:26.602Z,4.79
2023-04-14T04:48:55.396Z,4.75
2023-04-14T04:51:21.768Z,4.80
2023-04-14T04:53:48.129Z,4.76
2023-04-14T04:56:14.520Z,4.68
2023-04-14T04:58:41.623Z,4.57
2023-04-14T05:01:11.129Z,4.61
2023-04-14T05:03:37.757Z,4.65
2023-04-14T05:06:04.402Z,4.66
2023-04-14T05:08:30.915Z,4.60
2023-04-14T05:10:57.517Z,4.57
2023-04-14T05:13:24.015Z,4.57
2023-04-14T05:15:50.343Z,4.52
2023-04-14T05:18:16.706Z,4.54
2023-04-14T05:20:43.153Z,4.62
2023-04-14T05:23:09.443Z,4.63
2023-04-14T05:25:35.972Z,4.60
2023-04-14T05:28:02.430Z,4.64
2023-04-14T05:30:28.836Z,4.69
2023-04-14T05:32:56.373Z,4.73
2023-04-14T05:35:24.892Z,4.67
2023-04-14T05:37:51.283Z,4.72
2023-04-14T05:40:18.046Z,4.81
2023-04-14T05:42:44.435Z,4.90
2023-04-14T05:45:11.423Z,4.97
2023-04-14T05:47:39.499Z,5.09
2023-04-14T05:50:07.652Z,5.16
2023-04-14T05:52:34.118Z,5.19
2023-04-14T05:55:00.951Z,5.29
2023-04-14T05:57:27.274Z,5.35
2023-04-14T05:59:53.676Z,5.46
2023-04-14T06:02:20.185Z,5.52
2023-04-14T06:04:47.418Z,5.62
2023-04-14T06:07:13.896Z,5.71
2023-04-14T06:09:41.220Z,5.80
2023-04-14T06:12:07.608Z,5.89
2023-04-14T06:14:34.080Z,6.05
2023-04-14T06:17:00.952Z,6.08
2023-04-14T06:19:27.450Z,6.13
2023-04-14T06:21:53.764Z,6.24
2023-04-14T06:24:20.100Z,6.39
2023-04-14T06:26:46.522Z,6.53
2023-04-14T06:29:13.190Z,6.70
2023-04-14T06:31:39.741Z,6.73
2023-04-14T06:34:06.314Z,6.83
2023-04-14T06:36:32.802Z,6.97
2023-04-14T06:38:59.441Z,7.10
2023-04-14T06:41:26.254Z,7.23
2023-04-14T06:43:52.631Z,7.23
2023-04-14T06:46:19.049Z,7.33
2023-04-14T06:48:45.750Z,7.46
2023-04-14T06:51:13.526Z,7.51
2023-04-14T06:53:40.266Z,7.61
2023-04-14T06:56:07.346Z,7.69
2023-04-14T06:58:33.758Z,7.86
2023-04-14T07:01:01.854Z,7.71
2023-04-14T07:03:34.314Z,7.83
2023-04-14T07:06:10.166Z,7.95
2023-04-14T07:08:37.360Z,8.15
2023-04-14T07:11:06.995Z,8.17
2023-04-14T07:13:34.178Z,8.27
2023-04-14T07:16:04.104Z,8.22
2023-04-14T07:18:31.738Z,8.39
2023-04-14T07:20:59.610Z,8.58
2023-04-14T07:23:26.286Z,8.67
2023-04-14T07:25:54.649Z,8.78
2023-04-14T07:28:22.025Z,9.02
2023-04-14T07:30:49.536Z,9.20
2023-04-14T07:33:19.922Z,9.35
2023-04-14T07:36:00.573Z,9.44
2023-04-14T07:38:29.101Z,9.66
2023-04-14T07:40:55.558Z,9.90
2023-04-14T07:43:22.139Z,10.09
2023-04-14T07:45:48.659Z,10.04
2023-04-14T07:48:15.148Z,10.01
2023-04-14T07:50:41.468Z,10.11
2023-04-14T07:53:07.880Z,10.41
2023-04-14T07:55:34.209Z,10.52
2023-04-14T07:58:00.790Z,10.65
2023-04-14T08:00:27.703Z,10.74
2023-04-14T08:02:54.355Z,10.98
2023-04-14T08:05:21.319Z,11.18
2023-04-14T08:07:49.423Z,11.26
2023-04-14T08:10:16.086Z,11.19
2023-04-14T08:12:42.427Z,11.29
2023-04-14T08:15:09.616Z,11.46
2023-04-14T08:17:36.108Z,11.59
2023-04-14T08:20:02.637Z,11.71
2023-04-14T08:22:28.960Z,11.87
2023-04-14T08:24:55.848Z,12.18
2023-04-14T08:27:22.281Z,12.34
2023-04-14T08:29:49.043Z,12.53
2023-04-14T08:32:15.642Z,12.61
2023-04-14T08:35:35.739Z,12.71
2023-04-14T08:37:28.637Z,12.94
2023-04-14T08:39:55.143Z,13.08
2023-04-14T08:42:21.865Z,13.16
2023-04-14T08:44:48.948Z,13.10
2023-04-14T08:47:16.176Z,13.27
2023-04-14T08:49:49.741Z,13.44
2023-04-14T08:52:18.601Z,13.39
2023-04-14T08:54:50.061Z,13.64
2023-04-14T08:57:20.172Z,13.78
2023-04-14T08:59:47.744Z,13.90
2023-04-14T09:02:15.691Z,14.06
2023-04-14T09:04:43.290Z,14.34
2023-04-14T09:07:10.057Z,14.44
2023-04-14T09:09:36.661Z,14.51
2023-04-14T09:12:04.008Z,14.68
2023-04-14T09:14:31.001Z,14.35
2023-04-14T09:16:57.383Z,14.32
2023-04-14T09:19:27.204Z,14.47
2023-04-14T09:21:55.319Z,14.62
2023-04-14T09:24:24.902Z,14.65
2023-04-14T09:26:51.956Z,14.72
2023-04-14T09:29:18.677Z,14.60
2023-04-14T09:31:45.796Z,14.88
2023-04-14T09:34:18.133Z,14.84
2023-04-14T09:37:07.881Z,14.90
2023-04-14T09:39:35.820Z,15.02
2023-04-14T09:42:04.064Z,14.92
2023-04-14T09:44:30.934Z,15.21
2023-04-14T09:47:01.296Z,15.36
2023-04-14T09:49:29.082Z,15.44
2023-04-14T09:52:03.809Z,15.39
2023-04-14T09:54:30.277Z,15.15
2023-04-14T09:56:57.613Z,14.73
2023-04-14T09:59:46.566Z,14.91
2023-04-14T10:02:12.906Z,15.12
2023-04-14T10:04:39.416Z,15.29
2023-04-14T10:07:07.991Z,15.34
2023-04-14T10:09:37.833Z,15.33
2023-04-14T10:12:14.521Z,15.46
2023-04-14T10:14:42.326Z,15.51
2023-04-14T10:17:09.716Z,15.18
2023-04-14T10:19:37.721Z,15.02
2023-04-14T10:22:06.051Z,15.27
2023-04-14T10:24:32.929Z,15.45
2023-04-14T10:27:03.400Z,15.26
2023-04-14T10:29:30.980Z,15.04
2023-04-14T10:32:05.993Z,15.11
2023-04-14T10:34:33.794Z,15.30
2023-04-14T10:37:16.461Z,15.37
2023-04-14T10:39:43.085Z,15.34
2023-04-14T10:42:09.748Z,15.56
2023-04-14T10:44:36.641Z,15.54
2023-04-14T10:47:06.901Z,15.60
2023-04-14T10:49:38.235Z,15.39
2023-04-14T10:52:07.094Z,15.34
2023-04-14T10:55:12.844Z,15.29
2023-04-14T10:57:44.479Z,15.13
2023-04-14T11:00:20.185Z,14.92
2023-04-14T11:03:08.198Z,14.93
2023-04-14T11:05:35.593Z,15.09
2023-04-14T11:08:16.654Z,15.31
2023-04-14T11:10:49.154Z,15.20
2023-04-14T11:13:17.577Z,15.27
2023-04-14T11:15:44.722Z,15.35
2023-04-14T11:18:14.453Z,15.34
2023-04-14T11:20:44.289Z,15.51
2023-04-14T11:23:13.176Z,15.49
2023-04-14T11:25:40.375Z,15.38
2023-04-14T11:28:07.300Z,15.46
2023-04-14T11:30:33.733Z,15.47
2023-04-14T11:33:00.306Z,15.56
2023-04-14T11:35:28.144Z,15.53
2023-04-14T11:37:55.815Z,15.55
2023-04-14T11:40:23.756Z,15.76
2023-04-14T11:42:55.504Z,15.95
2023-04-14T11:45:21.983Z,15.97
2023-04-14T11:48:05.679Z,15.71
2023-04-14T11:50:34.055Z,15.90
2023-04-14T11:53:00.875Z,16.04
2023-04-14T11:55:27.973Z,15.93
2023-04-14T11:57:55.609Z,16.12
2023-04-14T12:00:22.128Z,16.32
2023-04-14T12:02:48.869Z,16.54
2023-04-14T12:05:25.955Z,16.72
2023-04-14T12:07:59.124Z,16.90
2023-04-14T12:10:26.525Z,17.00
2023-04-14T12:13:04.519Z,17.29
2023-04-14T12:15:39.359Z,17.48
2023-04-14T12:18:08.766Z,17.64
2023-04-14T12:20:51.910Z,17.68
2023-04-14T12:23:18.381Z,17.58
2023-04-14T12:25:44.757Z,17.68
2023-04-14T12:28:17.632Z,17.65
2023-04-14T12:30:52.182Z,17.88
2023-04-14T12:33:23.644Z,17.96
2023-04-14T12:35:53.651Z,17.64
2023-04-14T12:38:26.884Z,17.91
2023-04-14T12:40:53.303Z,18.12
2023-04-14T12:43:31.738Z,17.98
2023-04-14T12:45:58.767Z,17.97
2023-04-14T12:48:45.261Z,17.95
2023-04-14T12:51:13.462Z,17.66
2023-04-14T12:53:40.969Z,17.62
2023-04-14T12:56:08.352Z,17.68
2023-04-14T12:58:37.795Z,17.57
2023-04-14T13:01:06.610Z,17.89
2023-04-14T13:03:54.352Z,17.89
2023-04-14T13:06:23.002Z,18.02
2023-04-14T13:08:51.816Z,18.37
2023-04-14T13:11:19.947Z,18.55
2023-04-14T13:13:47.174Z,18.70
2023-04-14T13:16:16.780Z,19.05
2023-04-14T13:18:46.579Z,19.29
2023-04-14T13:21:13.246Z,19.50
2023-04-14T13:23:39.927Z,19.57
2023-04-14T13:26:06.354Z,19.59
2023-04-14T13:28:32.849Z,19.51
2023-04-14T13:30:59.187Z,19.57
2023-04-14T13:33:26.543Z,19.39
2023-04-14T13:35:55.411Z,19.54
2023-04-14T13:38:21.861Z,19.76
2023-04-14T13:40:48.475Z,19.55
2023-04-14T13:43:17.569Z,19.57
2023-04-14T13:45:44.211Z,19.40
2023-04-14T13:48:10.592Z,19.59
2023-04-14T13:50:37.235Z,19.66
2023-04-14T13:53:03.690Z,19.85
2023-04-14T13:55:30.355Z,19.87
2023-04-14T13:57:56.840Z,20.19
2023-04-14T14:00:23.212Z,20.38
2023-04-14T14:02:49.965Z,20.62
2023-04-14T14:05:16.583Z,20.67
2023-04-14T14:07:43.234Z,20.63
2023-04-14T14:10:10.650Z,20.10
2023-04-14T14:12:37.731Z,19.59
2023-04-14T14:15:05.560Z,19.75
2023-04-14T14:17:32.259Z,20.19
2023-04-14T14:19:59.173Z,20.64
2023-04-14T14:22:26.281Z,21.10
2023-04-14T14:24:58.572Z,21.29
2023-04-14T14:27:31.610Z,21.69
2023-04-14T14:29:58.039Z,21.43
2023-04-14T14:32:24.428Z,21.72
2023-04-14T14:34:51.004Z,21.46
2023-04-14T14:37:18.261Z,20.23
2023-04-14T14:39:44.895Z,19.31
2023-04-14T14:42:11.506Z,19.78
2023-04-14T14:44:39.013Z,19.48
2023-04-14T14:47:06.396Z,19.06
2023-04-14T14:49:32.957Z,18.92
2023-04-14T14:52:01.752Z,19.58
2023-04-14T14:54:28.111Z,19.84
2023-04-14T14:56:54.548Z,19.98
2023-04-14T14:59:21.033Z,19.92
2023-04-14T15:01:48.626Z,19.95
2023-04-14T15:04:15.209Z,20.57
2023-04-14T15:06:41.774Z,20.96
2023-04-14T15:09:08.202Z,21.29
2023-04-14T15:11:34.652Z,20.59
2023-04-14T15:14:01.558Z,20.78
2023-04-14T15:16:28.290Z,20.33
2023-04-14T15:18:54.769Z,19.95
2023-04-14T15:21:21.405Z,19.12
2023-04-14T15:23:47.818Z,18.85
2023-04-14T15:26:14.264Z,18.57
2023-04-14T15:28:41.110Z,18.34
2023-04-14T15:31:08.354Z,18.73
2023-04-14T15:33:35.111Z,18.96
2023-04-14T15:36:01.568Z,19.35
2023-04-14T15:38:28.010Z,19.54
2023-04-14T15:40:54.522Z,19.27
2023-04-14T15:43:21.484Z,19.33
2023-04-14T15:45:47.953Z,19.51
2023-04-14T15:48:14.489Z,19.33
2023-04-14T15:50:44.645Z,19.52
2023-04-14T15:53:12.142Z,19.70
2023-04-14T15:55:40.186Z,19.65
2023-04-14T15:58:06.766Z,19.75
2023-04-14T16:00:33.764Z,19.40
2023-04-14T16:03:02.143Z,19.50
2023-04-14T16:05:28.755Z,19.67
2023-04-14T16:07:55.556Z,19.91
2023-04-14T16:10:22.439Z,20.13
2023-04-14T16:12:50.461Z,19.83
2023-04-14T16:15:17.368Z,19.92
2023-04-14T16:17:44.605Z,19.98
2023-04-14T16:20:14.991Z,19.91
2023-04-14T16:22:41.354Z,20.08
2023-04-14T16:25:08.282Z,19.90
2023-04-14T16:27:34.727Z,19.72
2023-04-14T16:30:01.802Z,19.49
2023-04-14T16:32:29.839Z,18.82
2023-04-14T16:34:56.604Z,18.66
2023-04-14T16:37:25.947Z,18.79
2023-04-14T16:39:56.175Z,18.62
2023-04-14T16:42:24.319Z,18.63
2023-04-14T16:44:51.896Z,18.80
2023-04-14T16:47:18.956Z,18.62
2023-04-14T16:49:45.569Z,18.40
2023-04-14T16:52:12.355Z,18.00
2023-04-14T16:54:39.700Z,17.76
2023-04-14T16:57:07.147Z,17.63
2023-04-14T16:59:33.551Z,17.58
2023-04-14T17:02:00.211Z,17.52
2023-04-14T17:04:26.720Z,17.42
2023-04-14T17:06:53.330Z,17.13
2023-04-14T17:09:19.839Z,16.94
2023-04-14T17:11:46.173Z,16.99
2023-04-14T17:14:12.557Z,16.98
2023-04-14T17:16:39.693Z,16.84
2023-04-14T17:19:06.087Z,16.76
2023-04-14T17:21:32.452Z,16.76
2023-04-14T17:23:58.918Z,16.73
2023-04-14T17:26:25.312Z,16.78
2023-04-14T17:28:51.649Z,16.85
2023-04-14T17:31:18.098Z,16.87
2023-04-14T17:33:45.259Z,16.76
2023-04-14T17:36:17.376Z,16.69
2023-04-14T17:38:45.619Z,16.65
2023-04-14T17:41:12.918Z,16.58
2023-04-14T17:43:41.250Z,16.57
2023-04-14T17:46:09.171Z,16.48
2023-04-14T17:48:35.561Z,16.51
2023-04-14T17:51:02.850Z,16.48
2023-04-14T17:53:30.261Z,16.49
2023-04-14T17:55:57.568Z,16.49
2023-04-14T17:58:25.196Z,16.48
2023-04-14T18:00:52.149Z,16.39
2023-04-14T18:03:18.643Z,16.37
2023-04-14T18:05:45.290Z,16.36
2023-04-14T18:08:12.012Z,16.33
2023-04-14T18:10:39.156Z,16.29
2023-04-14T18:13:05.653Z,16.13
2023-04-14T18:15:32.232Z,16.00
2023-04-14T18:17:58.614Z,16.00
2023-04-14T18:20:25.622Z,16.01
2023-04-14T18:23:01.851Z,15.86
2023-04-14T18:26:26.230Z,15.68
2023-04-14T18:28:17.008Z,15.60
2023-04-14T18:30:43.592Z,15.54
2023-04-14T18:33:10.007Z,15.40
2023-04-14T18:35:36.483Z,15.31
2023-04-14T18:38:02.923Z,15.27
2023-04-14T18:40:29.531Z,15.08
2023-04-14T18:42:57.411Z,14.97
2023-04-14T18:45:23.782Z,14.94
2023-04-14T18:47:50.706Z,14.84
2023-04-14T18:50:18.218Z,14.70
2023-04-14T18:52:44.611Z,14.64
2023-04-14T18:55:11.018Z,14.59
2023-04-14T18:57:38.169Z,14.46
2023-04-14T19:00:07.023Z,14.36
2023-04-14T19:02:34.356Z,14.26
2023-04-14T19:05:01.311Z,14.09
2023-04-14T19:07:27.726Z,13.98
2023-04-14T19:09:54.092Z,13.96
2023-04-14T19:12:28.220Z,13.72
2023-04-14T19:14:55.413Z,13.59
2023-04-14T19:17:22.121Z,13.50
2023-04-14T19:19:48.945Z,13.37
2023-04-14T19:22:16.030Z,13.33
2023-04-14T19:24:42.635Z,13.19
2023-04-14T19:27:10.219Z,13.16
2023-04-14T19:29:36.662Z,13.08
2023-04-14T19:32:04.537Z,12.97
2023-04-14T19:34:31.479Z,12.64
2023-04-14T19:36:58.217Z,12.66
2023-04-14T19:39:24.717Z,12.44
2023-04-14T19:41:51.218Z,12.64
2023-04-14T19:44:17.587Z,12.85
2023-04-14T19:46:44.142Z,12.94
2023-04-14T19:49:11.627Z,12.94
2023-04-14T19:51:38.230Z,12.98
2023-04-14T19:54:05.603Z,13.03
2023-04-14T19:56:32.801Z,13.02
2023-04-14T19:59:00.023Z,12.98
2023-04-14T20:01:26.891Z,13.01
2023-04-14T20:04:06.618Z,12.92
2023-04-14T20:06:39.483Z,13.02
2023-04-14T20:09:06.420Z,12.98
2023-04-14T20:11:32.764Z,12.96
2023-04-14T20:13:59.351Z,12.96
2023-04-14T20:16:26.496Z,12.89
2023-04-14T20:18:52.948Z,12.88
2023-04-14T20:21:19.583Z,12.98
2023-04-14T20:23:46.111Z,12.97
2023-04-14T20:26:13.288Z,13.02
2023-04-14T20:28:40.461Z,13.02
2023-04-14T20:31:08.749Z,13.04
2023-04-14T20:33:35.897Z,13.07
2023-04-14T20:36:02.413Z,13.04
2023-04-14T20:38:29.193Z,13.02
2023-04-14T20:40:55.652Z,13.00
2023-04-14T20:43:22.338Z,12.95
2023-04-14T20:45:49.791Z,12.84
2023-04-14T20:48:16.530Z,12.77
2023-04-14T20:50:44.442Z,12.67
2023-04-14T20:53:10.968Z,12.67
2023-04-14T20:55:37.473Z,12.55
2023-04-14T20:58:04.114Z,12.57
2023-04-14T21:00:31.908Z,12.52
2023-04-14T21:02:59.813Z,12.52
2023-04-14T21:05:26.856Z,12.44
2023-04-14T21:07:53.265Z,12.42
2023-04-14T21:10:19.578Z,12.30
2023-04-14T21:15:11.400Z,12.19
2023-04-14T21:15:52.721Z,11.99
2023-04-14T21:18:19.577Z,12.04
2023-04-14T21:20:46.288Z,12.03
2023-04-14T21:23:12.602Z,12.08
2023-04-14T21:25:39.194Z,12.08
2023-04-14T21:28:05.770Z,12.05
2023-04-14T21:30:32.077Z,11.99
2023-04-14T21:32:59.192Z,11.89
2023-04-14T21:35:25.867Z,11.86
2023-04-14T21:37:52.418Z,11.82
2023-04-14T21:40:19.157Z,11.78
2023-04-14T21:42:45.856Z,11.74
2023-04-14T21:45:12.188Z,11.64
2023-04-14T21:47:38.735Z,11.66
2023-04-14T21:50:07.229Z,11.67
2023-04-14T21:52:33.563Z,11.67
2023-04-14T21:55:00.002Z,11.64
2023-04-14T21:57:43.726Z,11.63
2023-04-14T22:00:15.459Z,11.56
2023-04-14T22:02:42.922Z,11.52
2023-04-14T22:05:10.053Z,11.46
2023-04-14T22:07:36.500Z,11.47
2023-04-14T22:10:03.912Z,11.40
2023-04-14T22:12:35.838Z,11.35
2023-04-14T22:15:03.914Z,11.34
2023-04-14T22:17:31.046Z,11.38
2023-04-14T22:19:57.650Z,11.41
2023-04-14T22:22:24.345Z,11.30
2023-04-14T22:24:54.038Z,11.25
2023-04-14T22:27:20.903Z,11.14
2023-04-14T22:29:47.294Z,11.06
2023-04-14T22:32:13.611Z,11.00
2023-04-14T22:34:39.985Z,11.02
2023-04-14T22:37:07.356Z,10.99
2023-04-14T22:39:33.832Z,10.90
2023-04-14T22:42:00.582Z,10.77
2023-04-14T22:44:27.205Z,10.67
2023-04-14T22:46:53.660Z,10.59
2023-04-14T22:49:20.019Z,10.61
2023-04-14T22:51:47.146Z,10.52
2023-04-14T22:54:13.483Z,10.45
2023-04-14T22:56:41.050Z,10.38
2023-04-14T22:59:07.477Z,10.32
2023-04-14T23:01:33.834Z,10.30
2023-04-14T23:04:00.526Z,10.34
2023-04-14T23:06:27.045Z,10.33
2023-04-14T23:08:53.414Z,10.32
2023-04-14T23:11:21.011Z,10.27
2023-04-14T23:13:48.393Z,10.22
2023-04-14T23:16:16.764Z,10.15
2023-04-14T23:18:43.441Z,10.02
2023-04-14T23:21:10.015Z,9.97
2023-04-14T23:23:36.596Z,9.92
2023-04-14T23:26:03.094Z,9.92
2023-04-14T23:28:29.394Z,9.95
2023-04-14T23:30:55.849Z,9.90
2023-04-14T23:33:22.589Z,9.86
2023-04-14T23:35:48.974Z,9.87
2023-04-14T23:38:15.326Z,9.80
2023-04-14T23:40:41.779Z,9.73
2023-04-14T23:43:08.216Z,9.73
2023-04-14T23:45:37.598Z,9.69
2023-04-14T23:48:05.511Z,9.69
2023-04-14T23:51:00.141Z,9.61
2023-04-14T23:53:19.994Z,9.64
2023-04-14T23:55:47.461Z,9.64
2023-04-14T23:58:25.991Z,9.47
